sensor_id;sensor_type;location;lat;lon;timestamp;pressure;altitude;pressure_sealevel;temperature;humidity
61408;BME280;47274;43.054;25.146;2024-02-21T00:02:11;96212.34;;;3.41;100.00
61408;BME280;47274;43.054;25.146;2024-02-21T00:04:37;96198.22;;;3.37;100.00
61408;BME280;47274;43.054;25.146;2024-02-21T00:07:04;96214.19;;;3.39;100.00
61408;BME280;47274;43.054;25.146;2024-02-21T00:09:30;96201.72;;;3.35;100.00
61408;BME280;47274;43.054;25.146;2024-02-21T00:11:56;96206.81;;;3.35;100.00
61408;BME280;47274;43.054;25.146;2024-02-21T00:14:22;96211.66;;;3.39;100.00
61408;BME280;47274;43.054;25.146;2024-02-21T00:16:47;96206.00;;;3.34;100.00
61408;BME280;47274;43.054;25.146;2024-02-21T00:19:13;96211.22;;;3.31;100.00
61408;BME280;47274;43.054;25.146;2024-02-21T00:21:40;96215.25;;;3.35;100.00
61408;BME280;47274;43.054;25.146;2024-02-21T00:24:06;96205.50;;;3.27;100.00
61408;BME280;47274;43.054;25.146;2024-02-21T00:26:32;96188.19;;;3.20;100.00
61408;BME280;47274;43.054;25.146;2024-02-21T00:28:58;96206.00;;;3.34;100.00
61408;BME280;47274;43.054;25.146;2024-02-21T00:31:23;96192.81;;;3.27;100.00
61408;BME280;47274;43.054;25.146;2024-02-21T00:33:49;96202.75;;;3.32;100.00
61408;BME280;47274;43.054;25.146;2024-02-21T00:36:16;96178.97;;;3.19;100.00
61408;BME280;47274;43.054;25.146;2024-02-21T00:38:42;96198.72;;;3.28;100.00
61408;BME280;47274;43.054;25.146;2024-02-21T00:41:07;96182.38;;;3.18;100.00
61408;BME280;47274;43.054;25.146;2024-02-21T00:43:33;96197.25;;;3.24;100.00
61408;BME280;47274;43.054;25.146;2024-02-21T00:45:59;96191.63;;;3.19;100.00
61408;BME280;47274;43.054;25.146;2024-02-21T00:48:24;96180.19;;;3.12;100.00
61408;BME280;47274;43.054;25.146;2024-02-21T00:50:50;96189.97;;;3.18;100.00
61408;BME280;47274;43.054;25.146;2024-02-21T00:53:16;96186.78;;;3.14;100.00
61408;BME280;47274;43.054;25.146;2024-02-21T00:55:42;96179.56;;;3.08;100.00
61408;BME280;47274;43.054;25.146;2024-02-21T00:58:08;96166.56;;;2.98;100.00
61408;BME280;47274;43.054;25.146;2024-02-21T01:00:34;96180.59;;;3.04;100.00
61408;BME280;47274;43.054;25.146;2024-02-21T01:03:00;96166.63;;;2.97;100.00
61408;BME280;47274;43.054;25.146;2024-02-21T01:05:26;96173.59;;;2.93;100.00
61408;BME280;47274;43.054;25.146;2024-02-21T01:07:52;96185.13;;;2.99;100.00
61408;BME280;47274;43.054;25.146;2024-02-21T01:10:18;96179.56;;;2.92;100.00
61408;BME280;47274;43.054;25.146;2024-02-21T01:12:44;96160.69;;;2.82;100.00
61408;BME280;47274;43.054;25.146;2024-02-21T01:15:10;96182.84;;;2.94;100.00
61408;BME280;47274;43.054;25.146;2024-02-21T01:17:37;96178.00;;;2.90;100.00
61408;BME280;47274;43.054;25.146;2024-02-21T01:20:03;96177.78;;;2.94;100.00
61408;BME280;47274;43.054;25.146;2024-02-21T01:22:31;96172.69;;;2.94;100.00
61408;BME280;47274;43.054;25.146;2024-02-21T01:24:57;96180.03;;;2.99;100.00
61408;BME280;47274;43.054;25.146;2024-02-21T01:27:22;96185.59;;;3.05;100.00
61408;BME280;47274;43.054;25.146;2024-02-21T01:29:48;96177.25;;;3.03;100.00
61408;BME280;47274;43.054;25.146;2024-02-21T01:32:15;96178.91;;;3.04;100.00
61408;BME280;47274;43.054;25.146;2024-02-21T01:34:41;96156.41;;;2.98;100.00
61408;BME280;47274;43.054;25.146;2024-02-21T01:37:07;96171.03;;;3.09;100.00
61408;BME280;47274;43.054;25.146;2024-02-21T01:39:33;96166.69;;;3.11;100.00
61408;BME280;47274;43.054;25.146;2024-02-21T01:41:59;96160.16;;;3.07;100.00
61408;BME280;47274;43.054;25.146;2024-02-21T01:44:25;96150.91;;;3.06;100.00
61408;BME280;47274;43.054;25.146;2024-02-21T01:46:52;96167.41;;;3.13;100.00
61408;BME280;47274;43.054;25.146;2024-02-21T01:49:21;96163.16;;;3.14;100.00
61408;BME280;47274;43.054;25.146;2024-02-21T01:51:47;96162.44;;;3.12;100.00
61408;BME280;47274;43.054;25.146;2024-02-21T01:54:15;96155.06;;;3.07;100.00
61408;BME280;47274;43.054;25.146;2024-02-21T01:56:42;96142.81;;;2.99;100.00
61408;BME280;47274;43.054;25.146;2024-02-21T01:59:08;96134.75;;;2.93;100.00
61408;BME280;47274;43.054;25.146;2024-02-21T02:01:34;96126.59;;;2.88;100.00
61408;BME280;47274;43.054;25.146;2024-02-21T02:04:00;96144.81;;;2.94;100.00
61408;BME280;47274;43.054;25.146;2024-02-21T02:06:26;96140.31;;;2.83;100.00
61408;BME280;47274;43.054;25.146;2024-02-21T02:08:52;96143.38;;;2.74;100.00
61408;BME280;47274;43.054;25.146;2024-02-21T02:11:18;96144.81;;;2.63;100.00
61408;BME280;47274;43.054;25.146;2024-02-21T02:13:44;96142.72;;;2.55;100.00
61408;BME280;47274;43.054;25.146;2024-02-21T02:16:10;96126.97;;;2.50;100.00
61408;BME280;47274;43.054;25.146;2024-02-21T02:18:35;96133.16;;;2.60;100.00
61408;BME280;47274;43.054;25.146;2024-02-21T02:21:01;96130.84;;;2.55;100.00
61408;BME280;47274;43.054;25.146;2024-02-21T02:23:33;96141.22;;;2.67;100.00
61408;BME280;47274;43.054;25.146;2024-02-21T02:25:58;96140.25;;;2.69;100.00
61408;BME280;47274;43.054;25.146;2024-02-21T02:28:26;96153.25;;;2.79;100.00
61408;BME280;47274;43.054;25.146;2024-02-21T02:30:52;96154.69;;;2.83;100.00
61408;BME280;47274;43.054;25.146;2024-02-21T02:33:18;96128.75;;;2.64;100.00
61408;BME280;47274;43.054;25.146;2024-02-21T02:35:47;96148.19;;;2.79;100.00
61408;BME280;47274;43.054;25.146;2024-02-21T02:38:13;96140.91;;;2.73;100.00
61408;BME280;47274;43.054;25.146;2024-02-21T02:40:39;96149.97;;;2.77;100.00
61408;BME280;47274;43.054;25.146;2024-02-21T02:43:06;96158.31;;;2.79;100.00
61408;BME280;47274;43.054;25.146;2024-02-21T02:45:32;96156.53;;;2.81;100.00
61408;BME280;47274;43.054;25.146;2024-02-21T02:47:58;96156.44;;;2.82;100.00
61408;BME280;47274;43.054;25.146;2024-02-21T02:50:25;96157.97;;;2.85;100.00
61408;BME280;47274;43.054;25.146;2024-02-21T02:52:52;96144.91;;;2.77;100.00
61408;BME280;47274;43.054;25.146;2024-02-21T02:55:18;96148.56;;;2.87;100.00
61408;BME280;47274;43.054;25.146;2024-02-21T02:57:44;96141.88;;;2.86;100.00
61408;BME280;47274;43.054;25.146;2024-02-21T03:00:14;96129.19;;;2.86;100.00
61408;BME280;47274;43.054;25.146;2024-02-21T03:02:43;96143.00;;;2.96;100.00
61408;BME280;47274;43.054;25.146;2024-02-21T03:05:16;96156.47;;;2.97;100.00
61408;BME280;47274;43.054;25.146;2024-02-21T03:07:42;96154.31;;;2.91;100.00
61408;BME280;47274;43.054;25.146;2024-02-21T03:10:09;96141.81;;;2.72;100.00
61408;BME280;47274;43.054;25.146;2024-02-21T03:12:35;96142.22;;;2.64;100.00
61408;BME280;47274;43.054;25.146;2024-02-21T03:15:01;96151.13;;;2.55;100.00
61408;BME280;47274;43.054;25.146;2024-02-21T03:17:27;96148.84;;;2.51;100.00
61408;BME280;47274;43.054;25.146;2024-02-21T03:19:53;96143.44;;;2.41;100.00
61408;BME280;47274;43.054;25.146;2024-02-21T03:22:21;96151.03;;;2.41;100.00
61408;BME280;47274;43.054;25.146;2024-02-21T03:24:47;96145.16;;;2.41;100.00
61408;BME280;47274;43.054;25.146;2024-02-21T03:27:13;96135.50;;;2.31;100.00
61408;BME280;47274;43.054;25.146;2024-02-21T03:29:39;96144.50;;;2.37;100.00
61408;BME280;47274;43.054;25.146;2024-02-21T03:32:05;96105.28;;;2.12;100.00
61408;BME280;47274;43.054;25.146;2024-02-21T03:34:30;96160.03;;;2.47;100.00
61408;BME280;47274;43.054;25.146;2024-02-21T03:36:56;96144.19;;;2.43;100.00
61408;BME280;47274;43.054;25.146;2024-02-21T03:39:22;96134.28;;;2.38;100.00
61408;BME280;47274;43.054;25.146;2024-02-21T03:41:48;96152.84;;;2.55;100.00
61408;BME280;47274;43.054;25.146;2024-02-21T03:44:13;96157.66;;;2.59;100.00
61408;BME280;47274;43.054;25.146;2024-02-21T03:46:39;96147.72;;;2.56;100.00
61408;BME280;47274;43.054;25.146;2024-02-21T03:49:05;96139.19;;;2.57;100.00
61408;BME280;47274;43.054;25.146;2024-02-21T03:51:30;96161.25;;;2.71;100.00
61408;BME280;47274;43.054;25.146;2024-02-21T03:53:56;96153.81;;;2.68;100.00
61408;BME280;47274;43.054;25.146;2024-02-21T03:56:22;96154.31;;;2.75;100.00
61408;BME280;47274;43.054;25.146;2024-02-21T03:58:48;96163.38;;;2.79;100.00
61408;BME280;47274;43.054;25.146;2024-02-21T04:01:15;96140.75;;;2.60;100.00
61408;BME280;47274;43.054;25.146;2024-02-21T04:03:42;96138.47;;;2.55;100.00
61408;BME280;47274;43.054;25.146;2024-02-21T04:06:08;96155.47;;;2.53;100.00
61408;BME280;47274;43.054;25.146;2024-02-21T04:08:35;96159.31;;;2.60;100.00
61408;BME280;47274;43.054;25.146;2024-02-21T04:11:01;96129.66;;;2.47;100.00
61408;BME280;47274;43.054;25.146;2024-02-21T04:13:26;96169.44;;;2.60;100.00
61408;BME280;47274;43.054;25.146;2024-02-21T04:15:52;96153.66;;;2.55;100.00
61408;BME280;47274;43.054;25.146;2024-02-21T04:18:18;96136.44;;;2.46;100.00
61408;BME280;47274;43.054;25.146;2024-02-21T04:20:44;96145.50;;;2.50;100.00
61408;BME280;47274;43.054;25.146;2024-02-21T04:23:09;96145.56;;;2.49;100.00
61408;BME280;47274;43.054;25.146;2024-02-21T04:25:36;96153.25;;;2.63;100.00
61408;BME280;47274;43.054;25.146;2024-02-21T04:28:01;96152.53;;;2.61;100.00
61408;BME280;47274;43.054;25.146;2024-02-21T04:30:28;96152.09;;;2.69;100.00
61408;BME280;47274;43.054;25.146;2024-02-21T04:32:54;96160.59;;;2.83;100.00
61408;BME280;47274;43.054;25.146;2024-02-21T04:35:20;96148.50;;;2.73;100.00
61408;BME280;47274;43.054;25.146;2024-02-21T04:37:45;96148.28;;;2.77;100.00
61408;BME280;47274;43.054;25.146;2024-02-21T04:40:11;96158.91;;;2.84;100.00
61408;BME280;47274;43.054;25.146;2024-02-21T04:42:37;96139.81;;;2.77;100.00
61408;BME280;47274;43.054;25.146;2024-02-21T04:45:03;96133.13;;;2.76;100.00
61408;BME280;47274;43.054;25.146;2024-02-21T04:47:29;96147.03;;;2.84;100.00
61408;BME280;47274;43.054;25.146;2024-02-21T04:49:55;96153.47;;;2.90;100.00
61408;BME280;47274;43.054;25.146;2024-02-21T04:52:20;96158.38;;;2.93;100.00
61408;BME280;47274;43.054;25.146;2024-02-21T04:54:47;96152.66;;;2.90;100.00
61408;BME280;47274;43.054;25.146;2024-02-21T04:57:12;96154.22;;;2.92;100.00
61408;BME280;47274;43.054;25.146;2024-02-21T04:59:46;96169.75;;;3.02;100.00
61408;BME280;47274;43.054;25.146;2024-02-21T05:02:15;96161.22;;;3.03;100.00
61408;BME280;47274;43.054;25.146;2024-02-21T05:04:45;96165.69;;;3.14;100.00
61408;BME280;47274;43.054;25.146;2024-02-21T05:07:11;96168.22;;;3.14;100.00
61408;BME280;47274;43.054;25.146;2024-02-21T05:09:37;96174.53;;;3.22;100.00
61408;BME280;47274;43.054;25.146;2024-02-21T05:12:03;96168.81;;;3.19;100.00
61408;BME280;47274;43.054;25.146;2024-02-21T05:14:29;96155.66;;;3.12;100.00
61408;BME280;47274;43.054;25.146;2024-02-21T05:16:55;96175.00;;;3.29;100.00
61408;BME280;47274;43.054;25.146;2024-02-21T05:19:21;96169.47;;;3.22;100.00
61408;BME280;47274;43.054;25.146;2024-02-21T05:21:47;96178.63;;;3.25;100.00
61408;BME280;47274;43.054;25.146;2024-02-21T05:24:12;96167.91;;;3.20;100.00
61408;BME280;47274;43.054;25.146;2024-02-21T05:26:38;96175.50;;;3.20;100.00
61408;BME280;47274;43.054;25.146;2024-02-21T05:29:04;96177.88;;;3.23;100.00
61408;BME280;47274;43.054;25.146;2024-02-21T05:34:17;96168.16;;;3.15;100.00
61408;BME280;47274;43.054;25.146;2024-02-21T05:36:43;96200.91;;;3.34;100.00
61408;BME280;47274;43.054;25.146;2024-02-21T05:39:09;96177.13;;;3.21;100.00
61408;BME280;47274;43.054;25.146;2024-02-21T05:41:35;96191.94;;;3.28;100.00
61408;BME280;47274;43.054;25.146;2024-02-21T05:44:01;96171.84;;;3.09;100.00
61408;BME280;47274;43.054;25.146;2024-02-21T05:46:27;96185.75;;;3.18;100.00
61408;BME280;47274;43.054;25.146;2024-02-21T05:48:53;96209.06;;;3.25;100.00
61408;BME280;47274;43.054;25.146;2024-02-21T05:51:18;96195.69;;;3.21;100.00
61408;BME280;47274;43.054;25.146;2024-02-21T05:53:44;96202.16;;;3.27;100.00
61408;BME280;47274;43.054;25.146;2024-02-21T05:56:14;96209.28;;;3.36;100.00
61408;BME280;47274;43.054;25.146;2024-02-21T05:58:40;96215.31;;;3.33;100.00
61408;BME280;47274;43.054;25.146;2024-02-21T06:01:07;96209.22;;;3.22;100.00
61408;BME280;47274;43.054;25.146;2024-02-21T06:03:33;96214.84;;;3.27;100.00
61408;BME280;47274;43.054;25.146;2024-02-21T06:06:00;96224.94;;;3.28;100.00
61408;BME280;47274;43.054;25.146;2024-02-21T06:08:26;96217.22;;;3.30;100.00
61408;BME280;47274;43.054;25.146;2024-02-21T06:10:52;96207.69;;;3.03;100.00
61408;BME280;47274;43.054;25.146;2024-02-21T06:13:28;96220.28;;;3.05;100.00
61408;BME280;47274;43.054;25.146;2024-02-21T06:15:54;96219.47;;;3.04;100.00
61408;BME280;47274;43.054;25.146;2024-02-21T06:18:20;96219.69;;;3.00;100.00
61408;BME280;47274;43.054;25.146;2024-02-21T06:20:46;96229.13;;;2.98;100.00
61408;BME280;47274;43.054;25.146;2024-02-21T06:23:14;96234.34;;;2.95;100.00
61408;BME280;47274;43.054;25.146;2024-02-21T06:25:41;96227.72;;;2.92;100.00
61408;BME280;47274;43.054;25.146;2024-02-21T06:28:06;96228.78;;;2.88;100.00
61408;BME280;47274;43.054;25.146;2024-02-21T06:30:32;96240.00;;;2.84;100.00
61408;BME280;47274;43.054;25.146;2024-02-21T06:32:58;96230.75;;;2.83;100.00
61408;BME280;47274;43.054;25.146;2024-02-21T06:35:24;96224.53;;;2.73;100.00
61408;BME280;47274;43.054;25.146;2024-02-21T06:37:51;96218.47;;;2.75;100.00
61408;BME280;47274;43.054;25.146;2024-02-21T06:40:21;96234.59;;;2.90;100.00
61408;BME280;47274;43.054;25.146;2024-02-21T06:42:47;96237.59;;;2.97;100.00
61408;BME280;47274;43.054;25.146;2024-02-21T06:45:13;96214.31;;;2.90;100.00
61408;BME280;47274;43.054;25.146;2024-02-21T06:47:38;96230.22;;;3.24;100.00
61408;BME280;47274;43.054;25.146;2024-02-21T06:50:04;96229.75;;;3.17;100.00
61408;BME280;47274;43.054;25.146;2024-02-21T06:52:30;96215.06;;;3.08;100.00
61408;BME280;47274;43.054;25.146;2024-02-21T06:54:56;96238.59;;;3.26;100.00
61408;BME280;47274;43.054;25.146;2024-02-21T06:57:22;96231.34;;;3.34;100.00
61408;BME280;47274;43.054;25.146;2024-02-21T06:59:48;96229.34;;;3.85;100.00
61408;BME280;47274;43.054;25.146;2024-02-21T07:02:14;96247.44;;;4.66;100.00
61408;BME280;47274;43.054;25.146;2024-02-21T07:04:39;96227.88;;;5.22;100.00
61408;BME280;47274;43.054;25.146;2024-02-21T07:07:05;96220.97;;;5.52;100.00
61408;BME280;47274;43.054;25.146;2024-02-21T07:09:32;96213.56;;;5.61;96.47
61408;BME280;47274;43.054;25.146;2024-02-21T07:11:58;96213.22;;;5.93;99.03
61408;BME280;47274;43.054;25.146;2024-02-21T07:14:24;96228.50;;;6.18;95.99
61408;BME280;47274;43.054;25.146;2024-02-21T07:16:51;96239.38;;;6.72;95.46
61408;BME280;47274;43.054;25.146;2024-02-21T07:19:17;96220.19;;;6.66;94.80
61408;BME280;47274;43.054;25.146;2024-02-21T07:21:42;96222.69;;;7.04;92.14
61408;BME280;47274;43.054;25.146;2024-02-21T07:24:08;96220.25;;;6.90;89.91
61408;BME280;47274;43.054;25.146;2024-02-21T07:26:34;96242.38;;;7.02;89.49
61408;BME280;47274;43.054;25.146;2024-02-21T07:29:00;96227.91;;;7.62;91.20
61408;BME280;47274;43.054;25.146;2024-02-21T07:31:28;96229.06;;;7.58;85.13
61408;BME280;47274;43.054;25.146;2024-02-21T07:33:54;96222.50;;;7.67;88.84
61408;BME280;47274;43.054;25.146;2024-02-21T07:36:30;96246.63;;;7.63;81.84
61408;BME280;47274;43.054;25.146;2024-02-21T07:38:56;96230.00;;;7.33;87.21
61408;BME280;47274;43.054;25.146;2024-02-21T07:41:21;96235.31;;;7.06;83.41
61408;BME280;47274;43.054;25.146;2024-02-21T07:43:47;96226.91;;;7.41;82.79
61408;BME280;47274;43.054;25.146;2024-02-21T07:46:14;96229.19;;;7.56;85.17
61408;BME280;47274;43.054;25.146;2024-02-21T07:48:40;96224.00;;;7.69;81.38
61408;BME280;47274;43.054;25.146;2024-02-21T07:51:05;96236.91;;;8.25;80.07
61408;BME280;47274;43.054;25.146;2024-02-21T07:53:31;96235.88;;;8.28;78.64
61408;BME280;47274;43.054;25.146;2024-02-21T07:55:57;96224.16;;;8.59;75.78
61408;BME280;47274;43.054;25.146;2024-02-21T07:58:22;96237.69;;;9.59;79.71
61408;BME280;47274;43.054;25.146;2024-02-21T08:00:48;96237.00;;;9.25;73.40
61408;BME280;47274;43.054;25.146;2024-02-21T08:03:14;96220.47;;;9.18;75.47
61408;BME280;47274;43.054;25.146;2024-02-21T08:05:43;96234.72;;;9.43;76.94
61408;BME280;47274;43.054;25.146;2024-02-21T08:08:09;96239.69;;;9.56;69.76
61408;BME280;47274;43.054;25.146;2024-02-21T08:10:34;96212.19;;;9.25;73.69
61408;BME280;47274;43.054;25.146;2024-02-21T08:13:00;96218.63;;;10.66;71.78
61408;BME280;47274;43.054;25.146;2024-02-21T08:15:26;96234.41;;;11.91;67.72
61408;BME280;47274;43.054;25.146;2024-02-21T08:17:55;96241.59;;;12.44;66.01
61408;BME280;47274;43.054;25.146;2024-02-21T08:20:25;96228.94;;;12.61;64.01
61408;BME280;47274;43.054;25.146;2024-02-21T08:22:51;96233.56;;;12.94;64.43
61408;BME280;47274;43.054;25.146;2024-02-21T08:25:16;96232.72;;;13.49;61.62
61408;BME280;47274;43.054;25.146;2024-02-21T08:27:42;96223.34;;;12.75;59.81
61408;BME280;47274;43.054;25.146;2024-02-21T08:30:08;96237.75;;;13.50;61.11
61408;BME280;47274;43.054;25.146;2024-02-21T08:32:34;96228.47;;;13.58;57.56
61408;BME280;47274;43.054;25.146;2024-02-21T08:35:01;96234.31;;;13.04;59.56
61408;BME280;47274;43.054;25.146;2024-02-21T08:37:27;96224.66;;;14.06;61.05
61408;BME280;47274;43.054;25.146;2024-02-21T08:39:53;96238.34;;;13.17;54.56
61408;BME280;47274;43.054;25.146;2024-02-21T08:42:19;96224.63;;;13.62;55.35
61408;BME280;47274;43.054;25.146;2024-02-21T08:44:45;96244.53;;;12.12;61.38
61408;BME280;47274;43.054;25.146;2024-02-21T08:47:11;96237.59;;;12.32;63.59
61408;BME280;47274;43.054;25.146;2024-02-21T08:49:37;96230.19;;;13.57;54.33
61408;BME280;47274;43.054;25.146;2024-02-21T08:52:03;96233.41;;;13.23;57.11
61408;BME280;47274;43.054;25.146;2024-02-21T08:54:29;96226.59;;;13.32;54.00
61408;BME280;47274;43.054;25.146;2024-02-21T08:56:55;96241.69;;;14.68;54.96
61408;BME280;47274;43.054;25.146;2024-02-21T08:59:22;96239.72;;;13.57;58.17
61408;BME280;47274;43.054;25.146;2024-02-21T09:01:47;96234.28;;;14.48;57.01
61408;BME280;47274;43.054;25.146;2024-02-21T09:04:13;96229.16;;;15.32;57.82
61408;BME280;47274;43.054;25.146;2024-02-21T09:06:39;96244.59;;;16.16;52.98
61408;BME280;47274;43.054;25.146;2024-02-21T09:09:10;96238.50;;;15.25;49.97
61408;BME280;47274;43.054;25.146;2024-02-21T09:11:36;96232.41;;;14.84;52.03
61408;BME280;47274;43.054;25.146;2024-02-21T09:14:02;96241.84;;;15.09;53.19
61408;BME280;47274;43.054;25.146;2024-02-21T09:16:32;96221.13;;;15.60;50.49
61408;BME280;47274;43.054;25.146;2024-02-21T09:18:58;96219.84;;;16.13;50.03
61408;BME280;47274;43.054;25.146;2024-02-21T09:21:24;96232.59;;;15.57;49.23
61408;BME280;47274;43.054;25.146;2024-02-21T09:23:50;96228.59;;;15.04;52.00
61408;BME280;47274;43.054;25.146;2024-02-21T09:26:15;96230.88;;;13.41;53.86
61408;BME280;47274;43.054;25.146;2024-02-21T09:28:44;96227.88;;;12.91;59.78
61408;BME280;47274;43.054;25.146;2024-02-21T09:31:10;96236.75;;;12.41;56.38
61408;BME280;47274;43.054;25.146;2024-02-21T09:33:36;96227.41;;;12.40;58.94
61408;BME280;47274;43.054;25.146;2024-02-21T09:36:03;96224.22;;;12.19;57.91
61408;BME280;47274;43.054;25.146;2024-02-21T09:38:31;96233.44;;;12.59;58.31
61408;BME280;47274;43.054;25.146;2024-02-21T09:41:26;96242.06;;;13.22;54.51
61408;BME280;47274;43.054;25.146;2024-02-21T09:43:55;96232.19;;;13.63;55.24
61408;BME280;47274;43.054;25.146;2024-02-21T09:46:41;96214.94;;;13.64;53.71
61408;BME280;47274;43.054;25.146;2024-02-21T09:51:51;96225.38;;;13.54;56.88
61408;BME280;47274;43.054;25.146;2024-02-21T09:54:19;96217.41;;;13.47;56.93
61408;BME280;47274;43.054;25.146;2024-02-21T09:56:46;96224.09;;;13.58;56.92
61408;BME280;47274;43.054;25.146;2024-02-21T09:59:15;96222.41;;;13.03;55.80
61408;BME280;47274;43.054;25.146;2024-02-21T10:01:42;96214.28;;;12.98;58.03
61408;BME280;47274;43.054;25.146;2024-02-21T10:04:09;96221.66;;;13.11;56.16
61408;BME280;47274;43.054;25.146;2024-02-21T10:06:34;96216.56;;;13.01;51.28
61408;BME280;47274;43.054;25.146;2024-02-21T10:09:03;96225.72;;;13.41;54.38
61408;BME280;47274;43.054;25.146;2024-02-21T10:11:29;96205.16;;;13.67;54.76
61408;BME280;47274;43.054;25.146;2024-02-21T10:14:06;96187.75;;;12.88;52.34
61408;BME280;47274;43.054;25.146;2024-02-21T10:16:32;96214.47;;;12.87;54.46
61408;BME280;47274;43.054;25.146;2024-02-21T10:18:59;96219.91;;;11.61;56.75
61408;BME280;47274;43.054;25.146;2024-02-21T10:21:24;96216.22;;;11.15;56.83
61408;BME280;47274;43.054;25.146;2024-02-21T10:23:51;96208.25;;;11.37;55.59
61408;BME280;47274;43.054;25.146;2024-02-21T10:26:19;96194.72;;;11.16;53.32
61408;BME280;47274;43.054;25.146;2024-02-21T10:28:45;96196.09;;;11.88;57.20
61408;BME280;47274;43.054;25.146;2024-02-21T10:31:26;96186.59;;;12.08;54.57
61408;BME280;47274;43.054;25.146;2024-02-21T10:34:04;96190.28;;;12.43;55.22
61408;BME280;47274;43.054;25.146;2024-02-21T10:36:31;96170.97;;;13.30;52.85
61408;BME280;47274;43.054;25.146;2024-02-21T10:38:56;96183.16;;;13.37;51.61
61408;BME280;47274;43.054;25.146;2024-02-21T10:41:23;96172.47;;;13.04;54.63
61408;BME280;47274;43.054;25.146;2024-02-21T10:43:51;96160.06;;;13.71;51.38
61408;BME280;47274;43.054;25.146;2024-02-21T10:46:21;96168.31;;;13.21;53.40
61408;BME280;47274;43.054;25.146;2024-02-21T10:48:48;96158.22;;;13.64;52.34
61408;BME280;47274;43.054;25.146;2024-02-21T10:51:25;96134.59;;;14.55;50.84
61408;BME280;47274;43.054;25.146;2024-02-21T10:56:39;96153.16;;;15.17;51.57
61408;BME280;47274;43.054;25.146;2024-02-21T10:59:07;96144.31;;;15.36;47.33
61408;BME280;47274;43.054;25.146;2024-02-21T11:01:34;96145.56;;;16.22;46.96
61408;BME280;47274;43.054;25.146;2024-02-21T11:04:06;96130.56;;;16.96;46.02
61408;BME280;47274;43.054;25.146;2024-02-21T11:06:33;96140.06;;;17.03;45.20
61408;BME280;47274;43.054;25.146;2024-02-21T11:11:26;96112.97;;;17.90;43.60
61408;BME280;47274;43.054;25.146;2024-02-21T11:13:52;96128.66;;;16.42;46.02
61408;BME280;47274;43.054;25.146;2024-02-21T11:16:23;96119.72;;;15.48;44.97
61408;BME280;47274;43.054;25.146;2024-02-21T11:18:49;96136.84;;;16.15;48.38
61408;BME280;47274;43.054;25.146;2024-02-21T11:21:15;96105.81;;;16.46;45.60
61408;BME280;47274;43.054;25.146;2024-02-21T11:23:41;96126.06;;;16.34;45.70
61408;BME280;47274;43.054;25.146;2024-02-21T11:26:08;96102.47;;;16.29;45.92
61408;BME280;47274;43.054;25.146;2024-02-21T11:28:34;96106.78;;;16.45;45.14
61408;BME280;47274;43.054;25.146;2024-02-21T11:31:09;96121.59;;;16.28;45.02
61408;BME280;47274;43.054;25.146;2024-02-21T11:33:39;96096.78;;;16.33;44.21
61408;BME280;47274;43.054;25.146;2024-02-21T11:36:06;96102.56;;;17.37;44.52
61408;BME280;47274;43.054;25.146;2024-02-21T11:38:31;96090.97;;;18.00;41.28
61408;BME280;47274;43.054;25.146;2024-02-21T11:40:57;96110.03;;;18.37;41.69
61408;BME280;47274;43.054;25.146;2024-02-21T11:43:23;96110.75;;;18.16;42.50
61408;BME280;47274;43.054;25.146;2024-02-21T11:45:49;96087.31;;;17.72;39.93
61408;BME280;47274;43.054;25.146;2024-02-21T11:48:15;96108.97;;;16.95;43.94
61408;BME280;47274;43.054;25.146;2024-02-21T11:50:41;96102.22;;;15.99;45.65
61408;BME280;47274;43.054;25.146;2024-02-21T11:53:07;96085.63;;;15.20;41.96
61408;BME280;47274;43.054;25.146;2024-02-21T11:55:33;96092.44;;;13.86;46.27
61408;BME280;47274;43.054;25.146;2024-02-21T11:57:59;96072.81;;;13.93;48.30
61408;BME280;47274;43.054;25.146;2024-02-21T12:00:25;96084.38;;;13.01;46.95
61408;BME280;47274;43.054;25.146;2024-02-21T12:02:51;96096.06;;;12.95;49.68
61408;BME280;47274;43.054;25.146;2024-02-21T12:05:19;96087.81;;;12.74;48.75
61408;BME280;47274;43.054;25.146;2024-02-21T12:07:48;96081.19;;;12.44;48.47
61408;BME280;47274;43.054;25.146;2024-02-21T12:10:14;96081.94;;;12.36;50.29
61408;BME280;47274;43.054;25.146;2024-02-21T12:12:39;96081.38;;;12.15;50.56
61408;BME280;47274;43.054;25.146;2024-02-21T12:15:06;96064.75;;;11.99;51.59
61408;BME280;47274;43.054;25.146;2024-02-21T12:17:36;96072.03;;;11.57;51.70
61408;BME280;47274;43.054;25.146;2024-02-21T12:20:02;96070.19;;;11.30;51.53
61408;BME280;47274;43.054;25.146;2024-02-21T12:22:41;96079.06;;;11.45;52.11
61408;BME280;47274;43.054;25.146;2024-02-21T12:25:17;96078.25;;;11.54;53.75
61408;BME280;47274;43.054;25.146;2024-02-21T12:27:48;96068.16;;;11.43;53.54
61408;BME280;47274;43.054;25.146;2024-02-21T12:30:15;96067.31;;;11.52;53.57
61408;BME280;47274;43.054;25.146;2024-02-21T12:32:41;96071.22;;;11.56;53.77
61408;BME280;47274;43.054;25.146;2024-02-21T12:35:07;96074.25;;;11.42;53.03
61408;BME280;47274;43.054;25.146;2024-02-21T12:37:36;96066.09;;;11.47;54.14
61408;BME280;47274;43.054;25.146;2024-02-21T12:40:05;96054.09;;;11.28;53.07
61408;BME280;47274;43.054;25.146;2024-02-21T12:42:33;96057.50;;;11.09;54.32
61408;BME280;47274;43.054;25.146;2024-02-21T12:44:59;96060.88;;;11.09;55.50
61408;BME280;47274;43.054;25.146;2024-02-21T12:47:25;96051.03;;;11.05;55.18
61408;BME280;47274;43.054;25.146;2024-02-21T12:49:52;96056.16;;;10.95;55.79
61408;BME280;47274;43.054;25.146;2024-02-21T12:52:19;96052.63;;;10.77;54.38
61408;BME280;47274;43.054;25.146;2024-02-21T12:54:44;96053.28;;;10.59;55.26
61408;BME280;47274;43.054;25.146;2024-02-21T12:57:10;96052.06;;;10.44;55.70
61408;BME280;47274;43.054;25.146;2024-02-21T12:59:36;96034.53;;;10.09;56.51